Brecon, United Kingdom
Current Conditions -  °F | °C
As of 2:20 AM on Monday 26 Jan 2015 (Local Time) from EGFF Reporting Station
Overcast Overcast  
Wind Chill: 42°   Ceiling: 200
Heat Index: 48°   Visibility: 6mi
Dew Point: 46°   Wind: 15mph
Humidity: 93%   Direction: 260°W
Pressure: 30.24"   Gusts: NA
Location:  51.95°N, 3.39°W
Report Text: EGFF 260220Z AUTO 26013KT 9999 OVC002 09/08 Q1024
Loading
Personal Weather Stations






























Interactive Weather Map New forecast layout! Learn more

10-Day Weather Forecast

Advertisements
Track Severe Weather on mobile